Aeroporto :
LOGIN :

Iscrizione | Disclaimer

   EN    FR    IT 

 










Sommario :    VFR   VFR Marginale   IFR   IFR Intensivo   IFR Molto Intensivo
Visibilità : 
Base nubi : 
>= 8 km
>= 3000ft
5 / 8 km
1000 / 3000 ft
1500m / 5 km
500 / 1000 ft
800 / 1500m
200 / 500 ft
< 800m
< 200 ft
Simboli :   Temporali  Nebbia  Neve Forte  Precipitazioni Forti  Vento > 20 kt
SIGMETs :   Varie  Temporali  Ghiacco  Turbolenza  Onda orograficha  Ceneri Vulcaniche






- Altitudine del aeroporto : 288 ft
- Codice IATA : BZZ


EGVN - RAF Brize Norton

ULTIMO METAR :
  • 170250Z 00000KT 4000 BR BKN008 10/10 Q1016 NOSIG RMK GRN GRN

METARs OBSOLETI :
  • 170231Z 05002KT 3500 BR BKN007 10/10 Q1016 TEMPO 2000 BKN005 RMK YLO1 TEMPO YLO2
  • 170150Z 00000KT 3500 BR BKN007 10/10 Q1016 TEMPO 2000 BKN005 RMK YLO1 TEMPO YLO2
  • 170120Z 13001KT 4000 BR SCT007 BKN190 09/09 Q1017 TEMPO 3000 BKN005
  • 170050Z 09001KT 4000 BR BKN190 10/09 Q1017 TEMPO 3000 RMK GRN TEMPO YLO1
  • 170020Z 14001KT 7000 HZ BKN180 09/09 Q1017 TEMPO 4000 BR

TAF TAF EGVN
Valido dal 17 a 03 ore il 18 a 03 ore UTC


170140Z 1703/1803 18003KT 9999 FEW025
PROB40 1703/1708 3000 BR BKN005
PROB30 1703/1705 1600 SCT003
TEMPO 1708/1713 SCT018
PROB30 1800/1803 3000 BR SCT005



MetMap, La meteo Aeronautica in un colpo d'occhio ! - Copyright ORBIFLY Dicembre 2007 - Disclaimer

ORBIFLY MET'MAP TEAM :

Programmazione e sviluppo : Alexandra Zaïnal
Concezione : Baudouin d'Aumeries
Aiuto per la programmazione : Marc-Olivier Méhu
Supporto tecnico e logistico : Manuel Goepfert
Aiuto per la traduzione : Arnaldo La Scala

Contatto : metmap@orbifly.com




FONTI E CREDITI :

   NOAA